Aviation Digital Data Service (ADDS)

Output produced by METARs form (2045 UTC 31 March 2015)
found at http://aviationweather.gov/adds/metars/
 
KBDL 312015Z 3120/0124 27009KT P6SM BKN040 
     FM010000 VRB03KT P6SM OVC025 
     FM010200 00000KT P6SM BKN040 
     FM010400 35004KT P6SM SCT040 
     FM011500 33008KT P6SM FEW130